sensor_id;sensor_type;location;lat;lon;timestamp;P1;durP1;ratioP1;P2;durP2;ratioP2
24787;SDS011;12883;52.662;5.196;2022-10-30T00:01:55;13.43;;;13.32;;
24787;SDS011;12883;52.662;5.196;2022-10-30T00:04:20;13.70;;;13.60;;
24787;SDS011;12883;52.662;5.196;2022-10-30T00:06:46;12.68;;;12.57;;
24787;SDS011;12883;52.662;5.196;2022-10-30T00:09:12;12.73;;;12.63;;
24787;SDS011;12883;52.662;5.196;2022-10-30T00:11:38;13.18;;;13.07;;
24787;SDS011;12883;52.662;5.196;2022-10-30T00:14:05;13.20;;;13.10;;
24787;SDS011;12883;52.662;5.196;2022-10-30T00:16:30;13.95;;;13.85;;
24787;SDS011;12883;52.662;5.196;2022-10-30T00:18:55;13.98;;;13.88;;
24787;SDS011;12883;52.662;5.196;2022-10-30T00:21:20;13.68;;;13.57;;
24787;SDS011;12883;52.662;5.196;2022-10-30T00:23:47;13.80;;;13.70;;
24787;SDS011;12883;52.662;5.196;2022-10-30T00:26:13;12.48;;;12.38;;
24787;SDS011;12883;52.662;5.196;2022-10-30T00:28:40;13.70;;;13.60;;
24787;SDS011;12883;52.662;5.196;2022-10-30T00:31:05;13.45;;;13.35;;
24787;SDS011;12883;52.662;5.196;2022-10-30T00:33:31;13.73;;;13.63;;
24787;SDS011;12883;52.662;5.196;2022-10-30T00:35:57;14.00;;;13.90;;
24787;SDS011;12883;52.662;5.196;2022-10-30T00:38:23;12.68;;;12.57;;
24787;SDS011;12883;52.662;5.196;2022-10-30T00:40:48;13.82;;;13.73;;
24787;SDS011;12883;52.662;5.196;2022-10-30T00:43:34;13.80;;;13.70;;
24787;SDS011;12883;52.662;5.196;2022-10-30T00:46:23;13.90;;;13.80;;
24787;SDS011;12883;52.662;5.196;2022-10-30T00:48:54;13.23;;;13.13;;
24787;SDS011;12883;52.662;5.196;2022-10-30T00:51:23;13.85;;;13.75;;
24787;SDS011;12883;52.662;5.196;2022-10-30T00:53:50;14.77;;;14.68;;
24787;SDS011;12883;52.662;5.196;2022-10-30T00:56:17;14.43;;;14.32;;
24787;SDS011;12883;52.662;5.196;2022-10-30T00:58:50;13.75;;;13.65;;
24787;SDS011;12883;52.662;5.196;2022-10-30T01:01:21;13.82;;;13.73;;
24787;SDS011;12883;52.662;5.196;2022-10-30T01:03:49;14.25;;;14.15;;
24787;SDS011;12883;52.662;5.196;2022-10-30T01:06:19;13.32;;;13.23;;
24787;SDS011;12883;52.662;5.196;2022-10-30T01:08:45;15.00;;;14.90;;
24787;SDS011;12883;52.662;5.196;2022-10-30T01:11:11;13.90;;;13.80;;
24787;SDS011;12883;52.662;5.196;2022-10-30T01:13:37;13.82;;;13.73;;
24787;SDS011;12883;52.662;5.196;2022-10-30T01:18:34;14.95;;;14.85;;
24787;SDS011;12883;52.662;5.196;2022-10-30T01:24:10;15.05;;;14.95;;
24787;SDS011;12883;52.662;5.196;2022-10-30T01:29:55;15.23;;;15.13;;
24787;SDS011;12883;52.662;5.196;2022-10-30T01:35:13;14.75;;;14.65;;
24787;SDS011;12883;52.662;5.196;2022-10-30T01:37:47;15.23;;;15.13;;
24787;SDS011;12883;52.662;5.196;2022-10-30T01:40:18;15.43;;;15.32;;
24787;SDS011;12883;52.662;5.196;2022-10-30T01:45:29;15.95;;;15.85;;
24787;SDS011;12883;52.662;5.196;2022-10-30T01:56:54;14.93;;;14.82;;
24787;SDS011;12883;52.662;5.196;2022-10-30T01:59:25;15.15;;;15.05;;
24787;SDS011;12883;52.662;5.196;2022-10-30T02:01:56;14.68;;;14.57;;
24787;SDS011;12883;52.662;5.196;2022-10-30T02:04:22;16.02;;;15.93;;
24787;SDS011;12883;52.662;5.196;2022-10-30T02:06:48;16.30;;;16.20;;
24787;SDS011;12883;52.662;5.196;2022-10-30T02:09:15;16.25;;;16.15;;
24787;SDS011;12883;52.662;5.196;2022-10-30T02:11:41;15.90;;;15.80;;
24787;SDS011;12883;52.662;5.196;2022-10-30T02:14:09;15.50;;;15.40;;
24787;SDS011;12883;52.662;5.196;2022-10-30T02:16:40;16.00;;;15.90;;
24787;SDS011;12883;52.662;5.196;2022-10-30T02:19:09;16.20;;;16.10;;
24787;SDS011;12883;52.662;5.196;2022-10-30T02:21:34;16.50;;;16.40;;
24787;SDS011;12883;52.662;5.196;2022-10-30T02:23:59;15.80;;;15.70;;
24787;SDS011;12883;52.662;5.196;2022-10-30T02:26:25;16.45;;;16.35;;
24787;SDS011;12883;52.662;5.196;2022-10-30T02:28:50;15.77;;;15.68;;
24787;SDS011;12883;52.662;5.196;2022-10-30T02:31:15;16.58;;;16.48;;
24787;SDS011;12883;52.662;5.196;2022-10-30T02:33:44;15.30;;;15.20;;
24787;SDS011;12883;52.662;5.196;2022-10-30T02:36:10;15.73;;;15.63;;
24787;SDS011;12883;52.662;5.196;2022-10-30T02:38:35;16.77;;;16.67;;
24787;SDS011;12883;52.662;5.196;2022-10-30T02:41:00;16.38;;;16.27;;
24787;SDS011;12883;52.662;5.196;2022-10-30T02:43:26;16.02;;;15.93;;
24787;SDS011;12883;52.662;5.196;2022-10-30T02:45:51;16.85;;;16.75;;
24787;SDS011;12883;52.662;5.196;2022-10-30T02:48:16;16.48;;;16.38;;
24787;SDS011;12883;52.662;5.196;2022-10-30T02:50:42;15.98;;;15.88;;
24787;SDS011;12883;52.662;5.196;2022-10-30T02:53:07;15.18;;;15.07;;
24787;SDS011;12883;52.662;5.196;2022-10-30T02:55:32;16.45;;;16.35;;
24787;SDS011;12883;52.662;5.196;2022-10-30T02:57:58;16.30;;;16.20;;
24787;SDS011;12883;52.662;5.196;2022-10-30T03:00:23;16.33;;;16.23;;
24787;SDS011;12883;52.662;5.196;2022-10-30T03:02:53;16.15;;;16.05;;
24787;SDS011;12883;52.662;5.196;2022-10-30T03:05:19;17.13;;;17.02;;
24787;SDS011;12883;52.662;5.196;2022-10-30T03:07:45;16.88;;;16.77;;
24787;SDS011;12883;52.662;5.196;2022-10-30T03:10:12;17.45;;;17.35;;
24787;SDS011;12883;52.662;5.196;2022-10-30T03:12:38;17.02;;;16.92;;
24787;SDS011;12883;52.662;5.196;2022-10-30T03:15:03;16.67;;;16.58;;
24787;SDS011;12883;52.662;5.196;2022-10-30T03:17:29;16.63;;;16.52;;
24787;SDS011;12883;52.662;5.196;2022-10-30T03:19:54;17.02;;;16.92;;
24787;SDS011;12883;52.662;5.196;2022-10-30T03:22:20;17.85;;;17.75;;
24787;SDS011;12883;52.662;5.196;2022-10-30T03:24:45;17.02;;;16.92;;
24787;SDS011;12883;52.662;5.196;2022-10-30T03:27:11;17.30;;;17.20;;
24787;SDS011;12883;52.662;5.196;2022-10-30T03:29:36;18.10;;;18.00;;
24787;SDS011;12883;52.662;5.196;2022-10-30T03:32:01;17.95;;;17.85;;
24787;SDS011;12883;52.662;5.196;2022-10-30T03:34:27;18.52;;;18.42;;
24787;SDS011;12883;52.662;5.196;2022-10-30T03:36:52;17.20;;;17.10;;
24787;SDS011;12883;52.662;5.196;2022-10-30T03:39:17;16.63;;;16.52;;
24787;SDS011;12883;52.662;5.196;2022-10-30T03:41:43;18.08;;;17.98;;
24787;SDS011;12883;52.662;5.196;2022-10-30T03:44:08;17.95;;;17.85;;
24787;SDS011;12883;52.662;5.196;2022-10-30T03:46:33;17.45;;;17.35;;
24787;SDS011;12883;52.662;5.196;2022-10-30T03:48:59;17.15;;;17.05;;
24787;SDS011;12883;52.662;5.196;2022-10-30T03:51:25;18.02;;;17.92;;
24787;SDS011;12883;52.662;5.196;2022-10-30T03:53:50;18.55;;;18.45;;
24787;SDS011;12883;52.662;5.196;2022-10-30T03:56:15;18.55;;;18.45;;
24787;SDS011;12883;52.662;5.196;2022-10-30T03:58:41;17.10;;;17.00;;
24787;SDS011;12883;52.662;5.196;2022-10-30T04:01:06;18.90;;;18.80;;
24787;SDS011;12883;52.662;5.196;2022-10-30T04:03:32;18.23;;;18.13;;
24787;SDS011;12883;52.662;5.196;2022-10-30T04:05:58;17.25;;;17.15;;
24787;SDS011;12883;52.662;5.196;2022-10-30T04:08:23;18.70;;;18.60;;
24787;SDS011;12883;52.662;5.196;2022-10-30T04:10:49;18.85;;;18.75;;
24787;SDS011;12883;52.662;5.196;2022-10-30T04:13:14;17.73;;;17.63;;
24787;SDS011;12883;52.662;5.196;2022-10-30T04:15:41;18.42;;;18.33;;
24787;SDS011;12883;52.662;5.196;2022-10-30T04:18:10;18.25;;;18.15;;
24787;SDS011;12883;52.662;5.196;2022-10-30T04:20:37;19.05;;;18.95;;
24787;SDS011;12883;52.662;5.196;2022-10-30T04:23:04;18.85;;;18.75;;
24787;SDS011;12883;52.662;5.196;2022-10-30T04:25:30;19.80;;;19.70;;
24787;SDS011;12883;52.662;5.196;2022-10-30T04:27:59;18.02;;;17.92;;
24787;SDS011;12883;52.662;5.196;2022-10-30T04:30:24;18.10;;;18.00;;
24787;SDS011;12883;52.662;5.196;2022-10-30T04:32:52;19.40;;;19.30;;
24787;SDS011;12883;52.662;5.196;2022-10-30T04:35:19;18.42;;;18.33;;
24787;SDS011;12883;52.662;5.196;2022-10-30T04:40:18;18.35;;;18.25;;
24787;SDS011;12883;52.662;5.196;2022-10-30T04:42:45;20.40;;;20.30;;
24787;SDS011;12883;52.662;5.196;2022-10-30T04:45:11;20.10;;;20.00;;
24787;SDS011;12883;52.662;5.196;2022-10-30T04:47:36;19.83;;;19.73;;
24787;SDS011;12883;52.662;5.196;2022-10-30T04:50:02;20.33;;;20.23;;
24787;SDS011;12883;52.662;5.196;2022-10-30T04:52:27;19.27;;;19.17;;
24787;SDS011;12883;52.662;5.196;2022-10-30T04:54:53;21.10;;;21.00;;
24787;SDS011;12883;52.662;5.196;2022-10-30T04:57:18;20.02;;;19.92;;
24787;SDS011;12883;52.662;5.196;2022-10-30T04:59:43;19.27;;;19.17;;
24787;SDS011;12883;52.662;5.196;2022-10-30T05:02:09;20.52;;;20.42;;
24787;SDS011;12883;52.662;5.196;2022-10-30T05:04:34;19.65;;;19.55;;
24787;SDS011;12883;52.662;5.196;2022-10-30T05:06:59;20.88;;;20.77;;
24787;SDS011;12883;52.662;5.196;2022-10-30T05:09:26;19.85;;;19.75;;
24787;SDS011;12883;52.662;5.196;2022-10-30T05:11:51;20.10;;;20.00;;
24787;SDS011;12883;52.662;5.196;2022-10-30T05:14:16;20.23;;;20.13;;
24787;SDS011;12883;52.662;5.196;2022-10-30T05:16:42;20.80;;;20.70;;
24787;SDS011;12883;52.662;5.196;2022-10-30T05:19:07;20.27;;;20.17;;
24787;SDS011;12883;52.662;5.196;2022-10-30T05:21:32;21.00;;;20.90;;
24787;SDS011;12883;52.662;5.196;2022-10-30T05:23:58;20.05;;;19.95;;
24787;SDS011;12883;52.662;5.196;2022-10-30T05:26:23;21.42;;;21.33;;
24787;SDS011;12883;52.662;5.196;2022-10-30T05:28:48;20.08;;;19.98;;
24787;SDS011;12883;52.662;5.196;2022-10-30T05:31:14;20.58;;;20.48;;
24787;SDS011;12883;52.662;5.196;2022-10-30T05:33:39;19.90;;;19.80;;
24787;SDS011;12883;52.662;5.196;2022-10-30T05:36:04;21.50;;;21.40;;
24787;SDS011;12883;52.662;5.196;2022-10-30T05:38:30;20.67;;;20.58;;
24787;SDS011;12883;52.662;5.196;2022-10-30T05:40:55;21.60;;;21.50;;
24787;SDS011;12883;52.662;5.196;2022-10-30T05:43:20;20.90;;;20.77;;
24787;SDS011;12883;52.662;5.196;2022-10-30T05:45:49;21.00;;;20.90;;
24787;SDS011;12883;52.662;5.196;2022-10-30T05:48:14;20.88;;;20.77;;
24787;SDS011;12883;52.662;5.196;2022-10-30T05:50:40;22.02;;;21.92;;
24787;SDS011;12883;52.662;5.196;2022-10-30T05:53:05;21.83;;;21.73;;
24787;SDS011;12883;52.662;5.196;2022-10-30T05:55:30;21.05;;;20.95;;
24787;SDS011;12883;52.662;5.196;2022-10-30T05:57:57;20.88;;;20.77;;
24787;SDS011;12883;52.662;5.196;2022-10-30T06:00:24;21.48;;;21.35;;
24787;SDS011;12883;52.662;5.196;2022-10-30T06:02:50;21.33;;;21.23;;
24787;SDS011;12883;52.662;5.196;2022-10-30T06:05:16;19.60;;;19.50;;
24787;SDS011;12883;52.662;5.196;2022-10-30T06:07:41;20.15;;;20.02;;
24787;SDS011;12883;52.662;5.196;2022-10-30T06:10:07;20.02;;;19.92;;
24787;SDS011;12883;52.662;5.196;2022-10-30T06:12:32;20.00;;;19.90;;
24787;SDS011;12883;52.662;5.196;2022-10-30T06:14:58;19.38;;;19.27;;
24787;SDS011;12883;52.662;5.196;2022-10-30T06:17:23;18.20;;;18.10;;
24787;SDS011;12883;52.662;5.196;2022-10-30T06:19:48;19.88;;;19.77;;
24787;SDS011;12883;52.662;5.196;2022-10-30T06:22:14;19.35;;;19.25;;
24787;SDS011;12883;52.662;5.196;2022-10-30T06:24:39;20.02;;;19.92;;
24787;SDS011;12883;52.662;5.196;2022-10-30T06:27:04;19.38;;;19.27;;
24787;SDS011;12883;52.662;5.196;2022-10-30T06:29:30;20.83;;;20.73;;
24787;SDS011;12883;52.662;5.196;2022-10-30T06:31:55;20.23;;;20.13;;
24787;SDS011;12883;52.662;5.196;2022-10-30T06:34:20;20.27;;;20.13;;
24787;SDS011;12883;52.662;5.196;2022-10-30T06:36:46;19.48;;;19.38;;
24787;SDS011;12883;52.662;5.196;2022-10-30T06:39:11;20.33;;;20.23;;
24787;SDS011;12883;52.662;5.196;2022-10-30T06:41:36;19.40;;;19.30;;
24787;SDS011;12883;52.662;5.196;2022-10-30T06:44:02;19.35;;;19.25;;
24787;SDS011;12883;52.662;5.196;2022-10-30T06:46:27;19.85;;;19.75;;
24787;SDS011;12883;52.662;5.196;2022-10-30T06:48:52;18.88;;;18.77;;
24787;SDS011;12883;52.662;5.196;2022-10-30T06:51:18;19.30;;;19.20;;
24787;SDS011;12883;52.662;5.196;2022-10-30T06:53:43;18.73;;;18.63;;
24787;SDS011;12883;52.662;5.196;2022-10-30T06:56:08;19.52;;;19.42;;
24787;SDS011;12883;52.662;5.196;2022-10-30T06:58:34;19.58;;;19.48;;
24787;SDS011;12883;52.662;5.196;2022-10-30T07:01:03;19.17;;;19.08;;
24787;SDS011;12883;52.662;5.196;2022-10-30T07:03:29;19.15;;;19.05;;
24787;SDS011;12883;52.662;5.196;2022-10-30T07:05:55;19.98;;;19.88;;
24787;SDS011;12883;52.662;5.196;2022-10-30T07:08:21;18.95;;;18.85;;
24787;SDS011;12883;52.662;5.196;2022-10-30T07:10:46;19.42;;;19.33;;
24787;SDS011;12883;52.662;5.196;2022-10-30T07:13:11;18.60;;;18.50;;
24787;SDS011;12883;52.662;5.196;2022-10-30T07:15:37;19.60;;;19.50;;
24787;SDS011;12883;52.662;5.196;2022-10-30T07:18:02;20.25;;;20.15;;
24787;SDS011;12883;52.662;5.196;2022-10-30T07:20:29;20.35;;;20.25;;
24787;SDS011;12883;52.662;5.196;2022-10-30T07:22:56;20.15;;;20.05;;
24787;SDS011;12883;52.662;5.196;2022-10-30T07:25:21;20.10;;;20.00;;
24787;SDS011;12883;52.662;5.196;2022-10-30T07:27:47;20.55;;;20.45;;
24787;SDS011;12883;52.662;5.196;2022-10-30T07:30:15;19.45;;;19.35;;
24787;SDS011;12883;52.662;5.196;2022-10-30T07:32:42;19.90;;;19.80;;
24787;SDS011;12883;52.662;5.196;2022-10-30T07:35:09;21.20;;;21.10;;
24787;SDS011;12883;52.662;5.196;2022-10-30T07:37:36;20.90;;;20.80;;
24787;SDS011;12883;52.662;5.196;2022-10-30T07:40:02;22.23;;;22.13;;
24787;SDS011;12883;52.662;5.196;2022-10-30T07:42:28;22.90;;;22.80;;
24787;SDS011;12883;52.662;5.196;2022-10-30T07:44:53;21.92;;;21.83;;
24787;SDS011;12883;52.662;5.196;2022-10-30T07:47:18;22.55;;;22.45;;
24787;SDS011;12883;52.662;5.196;2022-10-30T07:49:44;22.38;;;22.27;;
24787;SDS011;12883;52.662;5.196;2022-10-30T07:52:09;23.67;;;23.58;;
24787;SDS011;12883;52.662;5.196;2022-10-30T07:54:35;23.95;;;23.80;;
24787;SDS011;12883;52.662;5.196;2022-10-30T07:57:00;23.75;;;23.58;;
24787;SDS011;12883;52.662;5.196;2022-10-30T07:59:26;23.70;;;23.60;;
24787;SDS011;12883;52.662;5.196;2022-10-30T08:01:51;26.08;;;25.88;;
24787;SDS011;12883;52.662;5.196;2022-10-30T08:04:17;25.52;;;25.33;;
24787;SDS011;12883;52.662;5.196;2022-10-30T08:06:42;25.58;;;25.38;;
24787;SDS011;12883;52.662;5.196;2022-10-30T08:09:08;25.33;;;25.23;;
24787;SDS011;12883;52.662;5.196;2022-10-30T08:11:34;26.35;;;26.15;;
24787;SDS011;12883;52.662;5.196;2022-10-30T08:13:59;27.98;;;27.77;;
24787;SDS011;12883;52.662;5.196;2022-10-30T08:16:25;26.48;;;26.27;;
24787;SDS011;12883;52.662;5.196;2022-10-30T08:18:50;28.52;;;28.33;;
24787;SDS011;12883;52.662;5.196;2022-10-30T08:21:16;28.42;;;28.23;;
24787;SDS011;12883;52.662;5.196;2022-10-30T08:23:41;26.20;;;26.02;;
24787;SDS011;12883;52.662;5.196;2022-10-30T08:26:06;26.70;;;26.50;;
24787;SDS011;12883;52.662;5.196;2022-10-30T08:28:32;25.30;;;25.10;;
24787;SDS011;12883;52.662;5.196;2022-10-30T08:30:58;24.27;;;24.08;;
24787;SDS011;12883;52.662;5.196;2022-10-30T08:33:24;22.98;;;22.88;;
24787;SDS011;12883;52.662;5.196;2022-10-30T08:35:50;23.20;;;23.10;;
24787;SDS011;12883;52.662;5.196;2022-10-30T08:38:16;21.27;;;21.17;;
24787;SDS011;12883;52.662;5.196;2022-10-30T08:40:42;21.42;;;21.33;;
24787;SDS011;12883;52.662;5.196;2022-10-30T08:43:08;21.17;;;21.08;;
24787;SDS011;12883;52.662;5.196;2022-10-30T08:45:33;21.00;;;20.90;;
24787;SDS011;12883;52.662;5.196;2022-10-30T08:47:59;19.92;;;19.83;;
24787;SDS011;12883;52.662;5.196;2022-10-30T08:50:27;20.20;;;20.10;;
24787;SDS011;12883;52.662;5.196;2022-10-30T08:52:53;19.75;;;19.65;;
24787;SDS011;12883;52.662;5.196;2022-10-30T08:55:19;20.23;;;20.13;;
24787;SDS011;12883;52.662;5.196;2022-10-30T08:57:44;20.42;;;20.23;;
24787;SDS011;12883;52.662;5.196;2022-10-30T09:00:10;18.60;;;18.50;;
24787;SDS011;12883;52.662;5.196;2022-10-30T09:02:36;21.02;;;20.83;;
24787;SDS011;12883;52.662;5.196;2022-10-30T09:05:07;19.35;;;19.25;;
24787;SDS011;12883;52.662;5.196;2022-10-30T09:07:33;19.90;;;19.80;;
24787;SDS011;12883;52.662;5.196;2022-10-30T09:09:59;20.00;;;19.90;;
24787;SDS011;12883;52.662;5.196;2022-10-30T09:12:24;20.42;;;20.33;;
24787;SDS011;12883;52.662;5.196;2022-10-30T09:14:50;21.95;;;21.85;;
24787;SDS011;12883;52.662;5.196;2022-10-30T09:17:15;19.15;;;19.05;;
24787;SDS011;12883;52.662;5.196;2022-10-30T09:19:40;19.92;;;19.83;;
24787;SDS011;12883;52.662;5.196;2022-10-30T09:22:06;20.55;;;20.45;;
24787;SDS011;12883;52.662;5.196;2022-10-30T09:24:31;18.88;;;18.77;;
24787;SDS011;12883;52.662;5.196;2022-10-30T09:26:57;19.90;;;19.80;;
24787;SDS011;12883;52.662;5.196;2022-10-30T09:29:22;19.05;;;18.95;;
24787;SDS011;12883;52.662;5.196;2022-10-30T09:31:48;20.33;;;20.23;;
24787;SDS011;12883;52.662;5.196;2022-10-30T09:34:13;19.38;;;19.27;;
24787;SDS011;12883;52.662;5.196;2022-10-30T09:36:39;19.15;;;19.05;;
24787;SDS011;12883;52.662;5.196;2022-10-30T09:39:07;20.15;;;20.02;;
24787;SDS011;12883;52.662;5.196;2022-10-30T09:55:15;20.08;;;19.98;;
24787;SDS011;12883;52.662;5.196;2022-10-30T10:01:00;18.40;;;18.30;;
24787;SDS011;12883;52.662;5.196;2022-10-30T10:03:42;20.63;;;20.52;;
24787;SDS011;12883;52.662;5.196;2022-10-30T10:06:20;19.42;;;19.33;;
24787;SDS011;12883;52.662;5.196;2022-10-30T10:09:00;20.83;;;20.73;;
24787;SDS011;12883;52.662;5.196;2022-10-30T10:11:31;18.48;;;18.38;;
24787;SDS011;12883;52.662;5.196;2022-10-30T10:14:08;20.08;;;19.98;;
24787;SDS011;12883;52.662;5.196;2022-10-30T10:16:53;21.13;;;21.02;;
24787;SDS011;12883;52.662;5.196;2022-10-30T10:19:21;20.13;;;20.02;;
24787;SDS011;12883;52.662;5.196;2022-10-30T10:21:56;21.05;;;20.95;;
24787;SDS011;12883;52.662;5.196;2022-10-30T10:24:29;23.25;;;23.15;;
24787;SDS011;12883;52.662;5.196;2022-10-30T10:29:42;22.33;;;22.23;;
24787;SDS011;12883;52.662;5.196;2022-10-30T10:37:51;20.92;;;20.83;;
24787;SDS011;12883;52.662;5.196;2022-10-30T10:40:33;21.30;;;21.17;;
24787;SDS011;12883;52.662;5.196;2022-10-30T10:48:44;21.02;;;20.92;;
24787;SDS011;12883;52.662;5.196;2022-10-30T10:51:24;20.88;;;20.77;;
24787;SDS011;12883;52.662;5.196;2022-10-30T10:56:26;19.63;;;19.52;;
24787;SDS011;12883;52.662;5.196;2022-10-30T10:58:59;20.63;;;20.52;;
24787;SDS011;12883;52.662;5.196;2022-10-30T11:01:37;19.65;;;19.55;;
24787;SDS011;12883;52.662;5.196;2022-10-30T11:04:09;20.30;;;20.20;;
24787;SDS011;12883;52.662;5.196;2022-10-30T11:06:45;20.92;;;20.83;;
24787;SDS011;12883;52.662;5.196;2022-10-30T11:11:43;19.77;;;19.67;;
24787;SDS011;12883;52.662;5.196;2022-10-30T11:14:17;20.60;;;20.50;;
24787;SDS011;12883;52.662;5.196;2022-10-30T11:19:18;18.80;;;18.70;;
24787;SDS011;12883;52.662;5.196;2022-10-30T11:21:45;20.15;;;20.05;;
24787;SDS011;12883;52.662;5.196;2022-10-30T11:24:24;19.35;;;19.25;;
24787;SDS011;12883;52.662;5.196;2022-10-30T11:26:50;18.92;;;18.83;;
24787;SDS011;12883;52.662;5.196;2022-10-30T11:29:17;19.08;;;18.98;;
24787;SDS011;12883;52.662;5.196;2022-10-30T11:31:57;19.30;;;19.20;;
24787;SDS011;12883;52.662;5.196;2022-10-30T11:34:29;20.30;;;20.20;;
24787;SDS011;12883;52.662;5.196;2022-10-30T11:36:57;19.15;;;19.05;;
24787;SDS011;12883;52.662;5.196;2022-10-30T11:39:26;19.70;;;19.60;;
24787;SDS011;12883;52.662;5.196;2022-10-30T11:44:27;19.42;;;19.33;;
24787;SDS011;12883;52.662;5.196;2022-10-30T11:47:05;19.48;;;19.38;;
24787;SDS011;12883;52.662;5.196;2022-10-30T11:49:37;20.02;;;19.92;;
24787;SDS011;12883;52.662;5.196;2022-10-30T11:52:11;19.75;;;19.65;;
24787;SDS011;12883;52.662;5.196;2022-10-30T11:54:45;20.52;;;20.42;;
24787;SDS011;12883;52.662;5.196;2022-10-30T11:57:18;21.48;;;21.38;;
24787;SDS011;12883;52.662;5.196;2022-10-30T11:59:47;21.90;;;21.80;;
24787;SDS011;12883;52.662;5.196;2022-10-30T12:02:25;21.08;;;20.98;;
24787;SDS011;12883;52.662;5.196;2022-10-30T12:04:52;20.27;;;20.17;;
24787;SDS011;12883;52.662;5.196;2022-10-30T12:09:47;22.23;;;22.13;;
24787;SDS011;12883;52.662;5.196;2022-10-30T12:12:32;21.75;;;21.55;;
24787;SDS011;12883;52.662;5.196;2022-10-30T12:15:09;20.35;;;20.25;;
24787;SDS011;12883;52.662;5.196;2022-10-30T12:18:26;21.00;;;20.90;;
24787;SDS011;12883;52.662;5.196;2022-10-30T12:20:47;20.50;;;20.40;;
24787;SDS011;12883;52.662;5.196;2022-10-30T12:23:17;21.02;;;20.92;;
24787;SDS011;12883;52.662;5.196;2022-10-30T12:25:46;22.02;;;21.92;;
24787;SDS011;12883;52.662;5.196;2022-10-30T12:28:14;20.83;;;20.73;;
24787;SDS011;12883;52.662;5.196;2022-10-30T12:36:36;20.38;;;20.27;;
24787;SDS011;12883;52.662;5.196;2022-10-30T12:39:10;20.52;;;20.42;;
24787;SDS011;12883;52.662;5.196;2022-10-30T12:41:42;19.52;;;19.42;;
24787;SDS011;12883;52.662;5.196;2022-10-30T12:44:16;20.15;;;20.05;;
24787;SDS011;12883;52.662;5.196;2022-10-30T12:49:42;19.67;;;19.58;;
24787;SDS011;12883;52.662;5.196;2022-10-30T13:00:27;20.52;;;20.42;;
24787;SDS011;12883;52.662;5.196;2022-10-30T13:03:00;19.90;;;19.80;;
24787;SDS011;12883;52.662;5.196;2022-10-30T13:05:39;20.05;;;19.95;;
24787;SDS011;12883;52.662;5.196;2022-10-30T13:08:11;20.35;;;20.25;;
24787;SDS011;12883;52.662;5.196;2022-10-30T13:13:22;20.00;;;19.90;;
24787;SDS011;12883;52.662;5.196;2022-10-30T13:15:52;20.10;;;20.00;;
24787;SDS011;12883;52.662;5.196;2022-10-30T13:18:20;19.50;;;19.35;;
24787;SDS011;12883;52.662;5.196;2022-10-30T13:20:54;19.60;;;19.50;;
24787;SDS011;12883;52.662;5.196;2022-10-30T13:23:30;18.80;;;18.70;;
24787;SDS011;12883;52.662;5.196;2022-10-30T13:26:21;20.08;;;19.98;;
24787;SDS011;12883;52.662;5.196;2022-10-30T13:29:11;20.23;;;20.05;;
24787;SDS011;12883;52.662;5.196;2022-10-30T13:31:42;20.38;;;20.27;;
24787;SDS011;12883;52.662;5.196;2022-10-30T13:34:25;19.80;;;19.70;;
24787;SDS011;12883;52.662;5.196;2022-10-30T13:45:10;19.23;;;19.13;;
24787;SDS011;12883;52.662;5.196;2022-10-30T13:54:03;18.05;;;17.95;;
24787;SDS011;12883;52.662;5.196;2022-10-30T13:56:33;18.02;;;17.92;;
24787;SDS011;12883;52.662;5.196;2022-10-30T13:59:03;18.30;;;18.20;;
24787;SDS011;12883;52.662;5.196;2022-10-30T14:07:16;17.60;;;17.50;;
24787;SDS011;12883;52.662;5.196;2022-10-30T14:10:01;18.85;;;18.75;;
24787;SDS011;12883;52.662;5.196;2022-10-30T14:20:52;19.27;;;19.17;;
24787;SDS011;12883;52.662;5.196;2022-10-30T14:23:20;19.70;;;19.58;;
24787;SDS011;12883;52.662;5.196;2022-10-30T14:28:25;18.65;;;18.55;;
24787;SDS011;12883;52.662;5.196;2022-10-30T14:31:01;18.60;;;18.50;;
24787;SDS011;12883;52.662;5.196;2022-10-30T14:39:00;18.23;;;18.13;;
24787;SDS011;12883;52.662;5.196;2022-10-30T14:50:50;17.88;;;17.77;;
24787;SDS011;12883;52.662;5.196;2022-10-30T14:58:39;19.48;;;19.38;;
24787;SDS011;12883;52.662;5.196;2022-10-30T15:11:50;19.10;;;19.00;;
24787;SDS011;12883;52.662;5.196;2022-10-30T15:14:39;18.48;;;18.38;;
24787;SDS011;12883;52.662;5.196;2022-10-30T15:17:22;18.88;;;18.77;;
24787;SDS011;12883;52.662;5.196;2022-10-30T15:19:56;18.45;;;18.35;;
24787;SDS011;12883;52.662;5.196;2022-10-30T15:22:26;18.40;;;18.30;;
24787;SDS011;12883;52.662;5.196;2022-10-30T15:24:54;19.35;;;19.25;;
24787;SDS011;12883;52.662;5.196;2022-10-30T15:27:20;20.30;;;20.20;;
24787;SDS011;12883;52.662;5.196;2022-10-30T15:29:50;19.63;;;19.52;;
24787;SDS011;12883;52.662;5.196;2022-10-30T15:32:19;19.92;;;19.83;;
24787;SDS011;12883;52.662;5.196;2022-10-30T15:34:53;19.25;;;19.15;;
24787;SDS011;12883;52.662;5.196;2022-10-30T15:37:24;20.05;;;19.95;;
24787;SDS011;12883;52.662;5.196;2022-10-30T15:42:34;19.83;;;19.65;;
24787;SDS011;12883;52.662;5.196;2022-10-30T15:45:00;19.25;;;19.15;;
24787;SDS011;12883;52.662;5.196;2022-10-30T15:47:26;18.95;;;18.85;;
24787;SDS011;12883;52.662;5.196;2022-10-30T15:49:53;18.98;;;18.88;;
24787;SDS011;12883;52.662;5.196;2022-10-30T15:52:20;19.38;;;19.27;;
24787;SDS011;12883;52.662;5.196;2022-10-30T15:54:51;18.00;;;17.90;;
24787;SDS011;12883;52.662;5.196;2022-10-30T15:57:31;17.45;;;17.35;;
24787;SDS011;12883;52.662;5.196;2022-10-30T16:00:00;15.18;;;15.07;;
24787;SDS011;12883;52.662;5.196;2022-10-30T16:02:30;14.30;;;14.20;;
24787;SDS011;12883;52.662;5.196;2022-10-30T16:04:55;12.80;;;12.70;;
24787;SDS011;12883;52.662;5.196;2022-10-30T16:07:22;13.63;;;13.52;;
24787;SDS011;12883;52.662;5.196;2022-10-30T16:09:53;13.43;;;13.32;;
24787;SDS011;12883;52.662;5.196;2022-10-30T16:12:24;14.80;;;14.70;;
24787;SDS011;12883;52.662;5.196;2022-10-30T16:14:51;14.93;;;14.82;;
24787;SDS011;12883;52.662;5.196;2022-10-30T16:17:18;13.48;;;13.38;;
24787;SDS011;12883;52.662;5.196;2022-10-30T16:19:48;13.00;;;12.90;;
24787;SDS011;12883;52.662;5.196;2022-10-30T16:22:21;10.65;;;10.55;;
24787;SDS011;12883;52.662;5.196;2022-10-30T16:24:53;11.32;;;11.23;;
24787;SDS011;12883;52.662;5.196;2022-10-30T16:27:21;10.45;;;10.35;;
24787;SDS011;12883;52.662;5.196;2022-10-30T16:29:51;11.38;;;11.30;;
24787;SDS011;12883;52.662;5.196;2022-10-30T16:32:20;10.90;;;10.82;;
24787;SDS011;12883;52.662;5.196;2022-10-30T16:34:49;10.63;;;10.52;;
24787;SDS011;12883;52.662;5.196;2022-10-30T16:37:23;11.93;;;11.82;;
24787;SDS011;12883;52.662;5.196;2022-10-30T16:39:52;14.65;;;14.55;;
24787;SDS011;12883;52.662;5.196;2022-10-30T16:42:20;10.63;;;10.52;;
24787;SDS011;12883;52.662;5.196;2022-10-30T16:44:47;10.63;;;10.55;;
24787;SDS011;12883;52.662;5.196;2022-10-30T16:49:45;10.88;;;10.82;;
24787;SDS011;12883;52.662;5.196;2022-10-30T16:52:16;11.52;;;11.43;;
24787;SDS011;12883;52.662;5.196;2022-10-30T16:54:58;11.13;;;11.05;;
24787;SDS011;12883;52.662;5.196;2022-10-30T16:57:26;10.30;;;10.20;;
24787;SDS011;12883;52.662;5.196;2022-10-30T16:59:55;11.07;;;10.98;;
24787;SDS011;12883;52.662;5.196;2022-10-30T17:02:28;11.02;;;10.93;;
24787;SDS011;12883;52.662;5.196;2022-10-30T17:07:33;11.38;;;11.27;;